Terminal Aerodrome Forecast
Issued by NWS

Home | Current Version | Previous Version | Graphics & Text | Print | Product List | Glossary On
Versions: 1 2 3 4 5 6 7 8 9 10 11 12 13 14 15
000
FTUS43 KBIS 271725
TAFJMS
TAF
KJMS 271725Z 2718/2818 21015KT P6SM VCTS BKN100CB
     FM272000 25015G25KT P6SM VCTS BKN060 BKN100CB
     FM272300 30015KT P6SM SCT050
     FM280400 31008KT P6SM SKC=

USA.gov is the U.S. government's official web portal to all federal, state and local government web resources and services.